year,month,day,hours (UTC+2),minutes,seconds,INP/L,error_neg,error_pos,Lamina temperature (C),Relative humidity with respect to water (%)
2018,3,22,10,32,53,91.33,14.11,14.11,-29,105
2018,3,22,11,2,55,190.97,18.6,18.6,-29,105
2018,3,22,11,32,55,221.13,17.45,17.45,-29,105
2018,3,22,12,2,57,190.88,23.97,23.97,-29,105
2018,3,22,12,32,54,48.35,15.71,15.71,-29,105
2018,3,22,17,1,11,8.75,3.72,3.72,-29,105
2018,3,22,17,42,54,8.91,2.39,2.39,-29,105
2018,3,22,18,12,56,8.22,2.56,2.56,-29,105
2018,3,22,18,42,57,6.96,3.5,3.5,-29,105
2018,3,22,19,12,59,10.2,4.39,4.39,-29,105
2018,3,22,19,43,1,19.87,7.19,7.19,-29,105
2018,3,22,20,12,59,7.71,6.98,6.98,-29,105
2018,3,22,20,43,2,4.95,11.59,11.59,-29,105
2018,3,28,10,47,15,13.33,4.08,4.08,-31,105
2018,3,28,11,9,45,32.14,8.83,8.83,-31,105
2018,3,28,11,32,17,33.13,6.84,6.84,-31,105
2018,3,28,11,54,47,20.31,5.42,5.42,-31,105
2018,3,28,12,17,17,14.59,4.69,4.69,-31,105
2018,3,28,12,39,50,13.18,4.21,4.21,-31,105
2018,3,28,13,2,13,14.11,4.47,4.47,-31,105
2018,3,28,13,24,52,27.29,6.9,6.9,-31,105
2018,3,28,17,50,37,6.26,3.8,3.8,-31,105
2018,3,28,18,36,27,5.26,1.13,1.13,-31,105
2018,3,28,19,6,26,5.3,1.11,1.11,-31,105
2018,3,28,19,36,29,5.02,1.09,1.09,-31,105
2018,3,28,20,6,30,4.3,1.03,1.03,-31,105
